EFJO

Joensuu Airport

Joensuu / Liperi, Finland
TAF EFJO 260235Z 2603/2612 16003KT 0150 FG VV002 TEMPO 2603/2606 0800 BECMG 2606/2608 2000 BR BKN003 TEMPO 2608/2612 9999 -SHRA SCT004 SCT020CB
Issued Valid From Valid To
Apr-26 @ 02:35 UTC
(an hour ago)
Apr-26 @ 03:00 UTC
(48 minutes ago)
Apr-26 @ 12:00 UTC
(in 8 hours)
Apr-26 @ 03:00 to Apr-26 @ 06:00
TAF EFJO 260235Z 2603/2612 16003KT 0150 FG VV002
Wind Visibility Clouds Conditions
160° at 3 knots 145 meters
  • Vertical visibility at 200' AGL
  • Fog
Temporary Apr-26 @ 03:00 to Apr-26 @ 06:00
TEMPO 2603/2606 0800
Visibility
805 meters
Becoming Apr-26 @ 06:00 to Apr-26 @ 12:00
BECMG 2606/2608 2000 BR BKN003
Wind Visibility Clouds Conditions
160° at 3 knots 1,996 meters
  • Broken at 300' AGL
  • Mist
Temporary Apr-26 @ 08:00 to Apr-26 @ 12:00
TEMPO 2608/2612 9999 -SHRA SCT004 SCT020CB
Visibility Clouds Conditions
10,000+ meters
  • Scattered at 400' AGL
  • Scattered at 2,000' AGL
  • Light Rain
TAF EFJO 260235Z 2603/2612 16003KT 0150 FG VV002 TEMPO 2603/2606 0800 BECMG 2606/2608 2000 BR BKN003 TEMPO 2608/2612 9999 -SHRA SCT004 SCT020CB
Issued Apr-26 @ 02:35 UTC
(an hour ago)
Valid From Apr-26 @ 03:00 UTC
(48 minutes ago)
Valid To Apr-26 @ 12:00 UTC
(in 8 hours)
Apr-26 @ 03:00 - Apr-26 @ 06:00
Wind Visibility
160° at 3 knots 145 meters
Clouds
  • Vertical visibility at 200' AGL
Conditions
  • Fog
Temporary Apr-26 @ 03:00 - Apr-26 @ 06:00
Becoming Apr-26 @ 06:00 - Apr-26 @ 12:00
Wind Visibility
160° at 3 knots 1,996 meters
Clouds
  • Broken at 300' AGL
Conditions
  • Mist
Temporary Apr-26 @ 08:00 - Apr-26 @ 12:00
Clouds
  • Scattered at 400' AGL
  • Scattered at 2,000' AGL
Conditions
  • Light Rain